Time;durP1;ratioP1;P1;durP2;ratioP2;P2;SDS_P1;SDS_P2;PMS_P1;PMS_P2;Temp;Humidity;BMP_temperature;BMP_pressure;BME280_temperature;BME280_humidity;BME280_pressure;Samples;Min_cycle;Max_cycle;Signal;HPM_P1;HPM_P2
2022/09/26 00:01:09;;;;;;;22.35;9.32;;;10.00;99.90;;;;;;5063428;28;20192;-86
2022/09/26 00:03:35;;;;;;;11.70;7.57;;;9.90;99.90;;;;;;5065751;28;20182;-86
2022/09/26 00:06:03;;;;;;;11.05;7.57;;;9.90;99.90;;;;;;5068768;28;20191;-85
2022/09/26 00:08:29;;;;;;;21.90;11.03;;;9.80;99.90;;;;;;5039809;28;20180;-86
2022/09/26 00:10:57;;;;;;;11.63;7.73;;;9.80;99.90;;;;;;5072326;28;20214;-85
2022/09/26 00:13:24;;;;;;;9.07;6.72;;;10.50;99.90;;;;;;5063548;28;20175;-85
2022/09/26 00:15:50;;;;;;;7.17;4.13;;;10.20;99.90;;;;;;5062914;28;20279;-85
2022/09/26 00:18:15;;;;;;;5.93;4.35;;;9.80;99.90;;;;;;5064385;28;20214;-85
2022/09/26 00:20:41;;;;;;;5.30;3.97;;;9.60;99.90;;;;;;5048412;28;20187;-85
2022/09/26 00:23:07;;;;;;;8.85;5.18;;;9.60;99.90;;;;;;5048411;28;20183;-85
2022/09/26 00:25:32;;;;;;;4.13;3.22;;;9.50;99.90;;;;;;5063105;28;20192;-86
2022/09/26 00:27:58;;;;;;;7.80;6.20;;;9.50;99.90;;;;;;5057410;28;20199;-85
2022/09/26 00:30:23;;;;;;;7.47;5.05;;;10.00;99.90;;;;;;5065514;28;20249;-86
2022/09/26 00:32:49;;;;;;;6.47;5.88;;;10.40;99.90;;;;;;5060644;28;20188;-85
2022/09/26 00:35:14;;;;;;;6.47;5.77;;;9.70;99.90;;;;;;5063351;28;20215;-85
2022/09/26 00:37:40;;;;;;;7.82;3.97;;;9.60;99.90;;;;;;5048777;28;20710;-85
2022/09/26 00:40:06;;;;;;;5.95;4.00;;;9.60;99.90;;;;;;5041121;28;20191;-85
2022/09/26 00:42:32;;;;;;;8.25;5.03;;;9.60;99.90;;;;;;5063017;28;20242;-86
2022/09/26 00:44:57;;;;;;;5.68;4.53;;;10.10;99.90;;;;;;5068673;28;20643;-85
2022/09/26 00:47:35;;;;;;;6.35;4.30;;;9.50;99.90;;;;;;5062823;28;20191;-85
2022/09/26 00:50:12;;;;;;;4.97;3.78;;;9.50;99.90;;;;;;5063481;28;20623;-85
2022/09/26 00:52:43;;;;;;;6.25;4.57;;;9.50;99.90;;;;;;5055872;28;20180;-85
2022/09/26 00:55:12;;;;;;;5.17;4.20;;;9.40;99.90;;;;;;5062728;28;20214;-85
2022/09/26 00:57:44;;;;;;;6.07;3.93;;;9.40;99.90;;;;;;5065765;28;20211;-85
2022/09/26 01:00:11;;;;;;;3.55;3.03;;;9.40;99.90;;;;;;5069730;28;20168;-85
2022/09/26 01:02:36;;;;;;;6.83;3.93;;;9.40;99.90;;;;;;5059310;28;20186;-85
2022/09/26 01:05:04;;;;;;;6.83;4.93;;;9.30;99.90;;;;;;5056781;28;20550;-86
2022/09/26 01:07:32;;;;;;;4.78;4.03;;;9.30;99.90;;;;;;5054617;28;20176;-85
2022/09/26 01:09:59;;;;;;;3.77;3.17;;;9.30;99.90;;;;;;5062330;28;20191;-85
2022/09/26 01:12:25;;;;;;;6.93;4.75;;;9.30;99.90;;;;;;5044428;28;20172;-86
2022/09/26 01:14:52;;;;;;;3.97;3.55;;;9.30;99.90;;;;;;5067700;28;20214;-85
2022/09/26 01:17:19;;;;;;;5.13;3.73;;;9.30;99.90;;;;;;5064504;28;20723;-86
2022/09/26 01:20:29;;;;;;;3.50;2.97;;;9.30;99.90;;;;;;5066102;28;20179;-86
2022/09/26 01:23:14;;;;;;;4.77;3.47;;;9.40;99.90;;;;;;4964058;28;20250;-85
2022/09/26 01:26:25;;;;;;;3.70;3.07;;;9.40;99.90;;;;;;4954435;28;20195;-85
2022/09/26 01:29:08;;;;;;;2.43;2.23;;;9.40;99.90;;;;;;5034812;28;20286;-85
2022/09/26 01:34:53;;;;;;;2.70;2.50;;;9.50;99.90;;;;;;5058822;28;20300;-85
2022/09/26 01:37:54;;;;;;;3.10;2.87;;;9.90;99.90;;;;;;5058037;28;20232;-85
2022/09/26 01:40:43;;;;;;;3.17;2.90;;;9.50;99.90;;;;;;4978277;28;20195;-86
2022/09/26 01:43:21;;;;;;;4.63;3.22;;;9.50;99.90;;;;;;5063075;28;20271;-85
2022/09/26 01:46:02;;;;;;;3.87;3.50;;;10.70;99.90;;;;;;5067355;28;20170;-85
2022/09/26 01:48:38;;;;;;;6.37;3.47;;;9.60;99.90;;;;;;5063482;28;20274;-85
2022/09/26 01:51:13;;;;;;;4.03;3.63;;;9.60;99.90;;;;;;5064560;28;20177;-85
2022/09/26 01:53:45;;;;;;;4.00;2.87;;;9.60;99.90;;;;;;5047091;28;20227;-85
2022/09/26 01:56:25;;;;;;;3.33;3.00;;;9.60;99.90;;;;;;5057830;28;20172;-85
2022/09/26 01:58:56;;;;;;;4.40;3.23;;;9.60;99.90;;;;;;5041482;28;20599;-85
2022/09/26 02:01:26;;;;;;;2.58;2.38;;;9.50;99.90;;;;;;5067993;28;20167;-86
2022/09/26 02:03:55;;;;;;;4.10;2.70;;;9.50;99.90;;;;;;5066962;28;20180;-85
2022/09/26 02:06:29;;;;;;;2.67;2.40;;;9.40;99.90;;;;;;5062312;28;20218;-85
2022/09/26 02:09:02;;;;;;;4.40;3.40;;;9.30;99.90;;;;;;5058765;28;20168;-86
2022/09/26 02:11:28;;;;;;;3.43;3.10;;;9.30;99.90;;;;;;5064282;28;20171;-85
2022/09/26 02:14:10;;;;;;;3.63;3.17;;;9.20;99.90;;;;;;5040609;28;20222;-86
2022/09/26 02:16:48;;;;;;;3.27;3.07;;;9.80;99.90;;;;;;5065342;28;20218;-86
2022/09/26 02:19:35;;;;;;;3.30;2.93;;;9.60;99.90;;;;;;5063072;28;20207;-86
2022/09/26 02:22:00;;;;;;;3.67;2.63;;;9.10;99.90;;;;;;5057664;28;20250;-86
2022/09/26 02:24:30;;;;;;;3.80;3.07;;;9.00;99.90;;;;;;5071466;28;20274;-87
2022/09/26 02:26:58;;;;;;;5.33;3.43;;;9.00;99.90;;;;;;5069495;28;20205;-86
2022/09/26 02:29:24;;;;;;;3.97;2.80;;;9.30;99.90;;;;;;5054302;28;20184;-86
2022/09/26 02:31:55;;;;;;;3.37;2.43;;;8.90;99.90;;;;;;5062563;28;20237;-86
2022/09/26 02:34:21;;;;;;;3.57;2.70;;;9.60;99.90;;;;;;5064451;28;20196;-86
2022/09/26 02:36:48;;;;;;;3.27;2.60;;;8.80;99.90;;;;;;5037321;28;20655;-86
2022/09/26 02:39:13;;;;;;;3.17;2.87;;;8.80;99.90;;;;;;5078490;28;20170;-86
2022/09/26 02:41:50;;;;;;;2.30;2.10;;;9.50;99.90;;;;;;5067856;28;20160;-85
2022/09/26 02:44:35;;;;;;;4.23;2.63;;;8.70;99.90;;;;;;5096336;28;20169;-86
2022/09/26 02:47:24;;;;;;;3.50;2.57;;;8.70;99.90;;;;;;5072059;28;20199;-85
2022/09/26 02:50:30;;;;;;;4.70;3.27;;;8.70;99.90;;;;;;5073195;28;20196;-86
2022/09/26 02:53:26;;;;;;;3.50;2.77;;;8.70;99.90;;;;;;5084082;28;20193;-84
2022/09/26 02:56:16;;;;;;;4.57;3.03;;;8.80;99.90;;;;;;5075323;28;20186;-84
2022/09/26 02:59:20;;;;;;;4.80;2.73;;;8.80;99.90;;;;;;5071294;28;20178;-83
2022/09/26 03:02:05;;;;;;;3.40;3.10;;;8.80;99.90;;;;;;5068785;28;20171;-84
2022/09/26 03:04:53;;;;;;;4.40;3.37;;;9.50;99.90;;;;;;5064813;28;20230;-85
2022/09/26 03:07:31;;;;;;;3.60;3.27;;;8.80;99.90;;;;;;5056066;28;20259;-85
2022/09/26 03:09:59;;;;;;;6.47;4.20;;;8.70;99.90;;;;;;5060521;28;20255;-86
2022/09/26 03:12:27;;;;;;;2.70;2.07;;;9.50;99.90;;;;;;5061846;28;20198;-85
2022/09/26 03:14:54;;;;;;;5.47;3.90;;;8.60;99.90;;;;;;5059895;28;20204;-85
2022/09/26 03:17:21;;;;;;;2.90;2.40;;;8.60;99.90;;;;;;5062066;28;20228;-85
2022/09/26 03:19:58;;;;;;;4.70;3.40;;;8.50;99.90;;;;;;5044950;28;20205;-85
2022/09/26 03:22:24;;;;;;;4.27;3.27;;;8.50;99.90;;;;;;5054542;28;20620;-85
2022/09/26 03:24:50;;;;;;;3.07;2.63;;;8.60;99.90;;;;;;5045616;28;20187;-86
2022/09/26 03:27:17;;;;;;;4.57;3.30;;;8.40;99.90;;;;;;5065913;28;20187;-86
2022/09/26 03:29:43;;;;;;;2.63;2.40;;;8.80;99.90;;;;;;5068004;28;20596;-85
2022/09/26 03:32:09;;;;;;;4.23;3.87;;;8.30;99.90;;;;;;5066138;28;20183;-86
2022/09/26 03:34:38;;;;;;;11.87;3.97;;;8.40;99.90;;;;;;5066443;28;20214;-86
2022/09/26 03:37:05;;;;;;;5.40;3.97;;;8.20;99.90;;;;;;5064281;28;20225;-86
2022/09/26 03:39:30;;;;;;;3.67;3.37;;;8.20;99.90;;;;;;5066908;28;20214;-83
2022/09/26 03:41:56;;;;;;;4.20;3.67;;;8.20;99.90;;;;;;5033090;28;20212;-86
2022/09/26 03:44:22;;;;;;;3.80;3.33;;;8.20;99.90;;;;;;5071755;28;20199;-86
2022/09/26 03:46:47;;;;;;;4.80;3.60;;;8.10;99.90;;;;;;5027492;28;20184;-86
2022/09/26 03:49:14;;;;;;;3.63;3.33;;;8.20;99.90;;;;;;5041879;28;20179;-87
2022/09/26 03:51:39;;;;;;;3.10;2.87;;;8.10;99.90;;;;;;5063823;28;20188;-86
2022/09/26 03:54:05;;;;;;;5.27;4.03;;;8.00;99.90;;;;;;5063496;28;20581;-88
2022/09/26 03:56:31;;;;;;;5.20;3.73;;;8.10;99.90;;;;;;5066608;28;20188;-87
2022/09/26 03:58:56;;;;;;;5.27;4.70;;;8.30;99.90;;;;;;5016426;28;20284;-85
2022/09/26 04:01:22;;;;;;;3.73;3.40;;;8.10;99.90;;;;;;5049147;28;20314;-84
2022/09/26 04:03:49;;;;;;;4.83;3.60;;;8.00;99.90;;;;;;5043040;28;20291;-84
2022/09/26 04:06:18;;;;;;;6.87;3.90;;;8.80;99.90;;;;;;5062017;28;20187;-87
2022/09/26 04:08:46;;;;;;;5.27;3.60;;;8.30;99.90;;;;;;5066232;28;20266;-87
2022/09/26 04:11:14;;;;;;;7.20;4.53;;;8.10;99.90;;;;;;5073370;28;20620;-86
2022/09/26 04:13:40;;;;;;;3.37;3.07;;;8.10;99.90;;;;;;5055986;28;20658;-84
2022/09/26 04:16:08;;;;;;;4.13;3.73;;;8.00;99.90;;;;;;5055666;28;20298;-84
2022/09/26 04:18:35;;;;;;;3.37;2.93;;;8.00;99.90;;;;;;5055615;28;20160;-86
2022/09/26 04:21:06;;;;;;;3.63;3.27;;;7.90;99.90;;;;;;5037333;28;20580;-85
2022/09/26 04:23:34;;;;;;;3.63;3.33;;;9.20;99.90;;;;;;5055655;28;20230;-86
2022/09/26 04:26:15;;;;;;;2.97;2.63;;;8.70;99.90;;;;;;5037353;28;20233;-86
2022/09/26 04:28:41;;;;;;;4.17;2.63;;;7.90;99.90;;;;;;5055257;28;20172;-86
2022/09/26 04:31:09;;;;;;;3.67;3.13;;;7.80;99.90;;;;;;5054991;28;20271;-86
2022/09/26 04:33:36;;;;;;;2.47;2.27;;;7.80;99.90;;;;;;5037324;28;20250;-89
2022/09/26 04:36:04;;;;;;;3.27;2.97;;;7.80;99.90;;;;;;5037130;28;20706;-87
2022/09/26 04:38:33;;;;;;;3.77;3.23;;;7.80;99.90;;;;;;5054956;28;20263;-88
2022/09/26 04:41:12;;;;;;;5.20;3.57;;;7.90;99.90;;;;;;5054802;28;20184;-87
2022/09/26 04:43:39;;;;;;;4.37;3.10;;;7.60;99.90;;;;;;5038101;28;20664;-85
2022/09/26 04:46:11;;;;;;;3.53;3.10;;;7.60;99.90;;;;;;5053586;28;20184;-87
2022/09/26 04:48:36;;;;;;;4.33;3.80;;;7.70;99.90;;;;;;5053729;28;20183;-84
2022/09/26 04:51:06;;;;;;;6.00;3.50;;;8.30;99.90;;;;;;5053684;28;20175;-84
2022/09/26 04:53:33;;;;;;;3.50;2.47;;;7.70;99.90;;;;;;5053352;28;20191;-85
2022/09/26 04:56:00;;;;;;;4.87;4.40;;;7.80;99.90;;;;;;5046692;28;20756;-84
2022/09/26 04:58:25;;;;;;;6.17;4.33;;;7.80;99.90;;;;;;5061060;28;20172;-86
2022/09/26 05:00:51;;;;;;;3.83;3.53;;;7.90;99.90;;;;;;5062915;28;20183;-86
2022/09/26 05:03:17;;;;;;;6.03;4.90;;;8.00;99.90;;;;;;5027919;28;20275;-86
2022/09/26 05:05:46;;;;;;;7.57;3.70;;;9.30;99.90;;;;;;5052949;28;20184;-86
2022/09/26 05:08:12;;;;;;;4.23;3.83;;;8.10;99.90;;;;;;5050863;28;20168;-86
2022/09/26 05:10:39;;;;;;;5.83;4.67;;;8.60;99.90;;;;;;5016272;28;20542;-86
2022/09/26 05:13:06;;;;;;;4.07;3.73;;;8.20;99.90;;;;;;5034691;28;20168;-87
2022/09/26 05:15:38;;;;;;;3.70;3.37;;;8.30;99.90;;;;;;5033668;28;20701;-85
2022/09/26 05:18:06;;;;;;;3.70;3.37;;;8.40;99.90;;;;;;5034338;28;20157;-87
2022/09/26 05:20:34;;;;;;;5.87;4.07;;;8.50;99.90;;;;;;5033969;28;20180;-86
2022/09/26 05:23:01;;;;;;;5.10;4.60;;;8.50;99.90;;;;;;5034184;28;20173;-86
2022/09/26 05:28:13;;;;;;;6.03;3.50;;;8.60;99.90;;;;;;5034016;28;20586;-87
2022/09/26 05:30:39;;;;;;;5.57;4.67;;;8.80;99.90;;;;;;5034160;28;20206;-86
2022/09/26 05:33:05;;;;;;;7.30;4.40;;;9.30;99.90;;;;;;5016292;28;20260;-86
2022/09/26 05:35:34;;;;;;;5.93;2.67;;;9.20;99.90;;;;;;5015788;28;20216;-86
2022/09/26 05:38:01;;;;;;;3.77;3.47;;;9.80;99.90;;;;;;5033790;28;20188;-86
2022/09/26 05:43:10;;;;;;;3.67;2.97;;;9.60;99.90;;;;;;5034153;28;20259;-87
2022/09/26 05:45:37;;;;;;;4.97;3.60;;;9.20;99.90;;;;;;5033139;28;20264;-87
2022/09/26 05:48:03;;;;;;;4.27;3.00;;;9.20;99.90;;;;;;5034042;28;20180;-87
2022/09/26 05:50:29;;;;;;;3.73;2.53;;;9.30;99.90;;;;;;5033511;28;20176;-87
2022/09/26 05:52:59;;;;;;;4.40;4.00;;;9.20;99.90;;;;;;5034222;28;20183;-86
2022/09/26 05:55:25;;;;;;;4.20;3.30;;;10.10;99.90;;;;;;5033586;28;20237;-86
2022/09/26 05:57:52;;;;;;;4.67;3.43;;;9.30;99.90;;;;;;5033492;28;20234;-87
2022/09/26 06:00:18;;;;;;;6.50;4.33;;;9.50;99.90;;;;;;5032705;28;20211;-87
2022/09/26 06:02:44;;;;;;;4.57;3.90;;;9.30;99.90;;;;;;5023749;28;20188;-89
2022/09/26 06:05:10;;;;;;;2.87;2.67;;;9.50;99.90;;;;;;5043000;28;20184;-86
2022/09/26 06:07:35;;;;;;;4.80;3.70;;;10.00;99.90;;;;;;5052370;28;20180;-86
2022/09/26 06:10:04;;;;;;;4.40;4.07;;;9.40;99.90;;;;;;5053559;28;20204;-86
2022/09/26 06:12:30;;;;;;;4.00;3.07;;;9.40;99.90;;;;;;5023910;28;20596;-87
2022/09/26 06:14:55;;;;;;;4.13;3.80;;;9.50;99.90;;;;;;5025905;28;20232;-87
2022/09/26 06:17:21;;;;;;;4.80;4.10;;;9.90;99.90;;;;;;5052802;28;20234;-87
2022/09/26 06:19:47;;;;;;;5.20;4.23;;;9.50;99.90;;;;;;5018961;28;20197;-87
2022/09/26 06:22:12;;;;;;;4.10;3.63;;;9.60;99.90;;;;;;5038547;28;20287;-87
2022/09/26 06:24:38;;;;;;;4.60;4.07;;;9.60;99.90;;;;;;5059020;28;20517;-87
2022/09/26 06:27:03;;;;;;;3.57;2.77;;;9.70;99.90;;;;;;5052581;28;20190;-86
2022/09/26 06:29:29;;;;;;;3.80;3.47;;;9.70;99.90;;;;;;5034609;28;20188;-87
2022/09/26 06:31:55;;;;;;;3.33;3.10;;;9.70;99.90;;;;;;5024015;28;20194;-88
2022/09/26 06:34:21;;;;;;;4.87;3.70;;;9.80;99.90;;;;;;5024712;28;20287;-87
2022/09/26 06:36:46;;;;;;;4.37;3.53;;;9.80;99.90;;;;;;5028275;28;20191;-87
2022/09/26 06:39:13;;;;;;;4.10;3.70;;;9.90;99.90;;;;;;5041947;28;20503;-87
2022/09/26 06:41:39;;;;;;;7.45;4.45;;;10.00;99.90;;;;;;5034046;28;20184;-87
2022/09/26 06:44:04;;;;;;;6.00;4.30;;;10.30;99.90;;;;;;5051816;28;20771;-86
2022/09/26 06:46:30;;;;;;;6.43;5.07;;;11.20;99.90;;;;;;5044499;28;20187;-88
2022/09/26 06:48:59;;;;;;;6.73;5.63;;;10.00;99.90;;;;;;5038331;28;20218;-87
2022/09/26 06:51:24;;;;;;;8.50;4.47;;;10.10;99.90;;;;;;5051724;28;20270;-87
2022/09/26 06:53:50;;;;;;;5.75;4.55;;;10.00;99.90;;;;;;5025374;28;20215;-87
2022/09/26 06:56:17;;;;;;;7.00;5.30;;;10.10;99.90;;;;;;5041739;28;20184;-86
2022/09/26 06:58:42;;;;;;;6.70;4.15;;;10.10;99.90;;;;;;5026774;28;20663;-86
2022/09/26 07:01:08;;;;;;;7.40;4.50;;;10.10;99.90;;;;;;5029495;28;20184;-86
2022/09/26 07:03:35;;;;;;;4.85;4.45;;;10.20;99.90;;;;;;5046462;28;20179;-87
2022/09/26 07:06:02;;;;;;;6.87;4.67;;;10.20;99.90;;;;;;5049058;28;20184;-87
2022/09/26 07:08:29;;;;;;;5.03;4.30;;;10.60;99.90;;;;;;5055898;28;20191;-87
2022/09/26 07:11:01;;;;;;;3.90;3.30;;;10.30;99.90;;;;;;5037241;28;20219;-88
2022/09/26 07:13:28;;;;;;;5.00;4.43;;;10.40;99.90;;;;;;5052068;28;20179;-87
2022/09/26 07:15:56;;;;;;;6.65;4.38;;;10.40;99.90;;;;;;5055400;28;20342;-86
2022/09/26 07:18:22;;;;;;;6.28;4.57;;;10.40;99.90;;;;;;5055485;28;20517;-88
2022/09/26 07:20:47;;;;;;;3.88;3.53;;;10.40;99.90;;;;;;5055369;28;20186;-89
2022/09/26 07:23:15;;;;;;;8.48;4.18;;;10.50;99.90;;;;;;5047353;28;20184;-90
2022/09/26 07:25:44;;;;;;;4.65;4.22;;;10.50;99.90;;;;;;5055263;28;20206;-88
2022/09/26 07:28:09;;;;;;;6.78;4.57;;;10.40;99.90;;;;;;5055705;28;20209;-87
2022/09/26 07:30:36;;;;;;;4.63;3.95;;;10.50;99.90;;;;;;5046569;28;20255;-86
2022/09/26 07:33:03;;;;;;;7.82;4.05;;;10.40;99.90;;;;;;5039830;28;20283;-88
2022/09/26 07:35:34;;;;;;;4.43;3.80;;;10.40;99.90;;;;;;5047298;28;20199;-88
2022/09/26 07:38:00;;;;;;;5.93;4.22;;;11.40;99.90;;;;;;5045843;28;20177;-88
2022/09/26 07:40:27;;;;;;;6.07;4.55;;;11.30;99.90;;;;;;5055766;28;20241;-89
2022/09/26 07:42:54;;;;;;;4.78;4.30;;;11.80;99.90;;;;;;5054845;28;20176;-90
2022/09/26 07:50:09;;;;;;;4.35;3.45;;;11.20;99.90;;;;;;5055401;28;20179;-89
2022/09/26 07:50:56;;;;;;;7.23;5.33;;;10.70;99.90;;;;;;5054986;28;20239;-87
2022/09/26 07:53:23;;;;;;;6.82;4.05;;;10.80;99.90;;;;;;5040744;28;20168;-88
2022/09/26 07:56:09;;;;;;;6.60;4.78;;;11.10;99.90;;;;;;5051559;28;20212;-87
2022/09/26 07:58:45;;;;;;;7.38;4.80;;;11.00;99.90;;;;;;5036794;28;20258;-86
2022/09/26 08:01:13;;;;;;;6.57;5.50;;;10.80;99.90;;;;;;5030463;28;20189;-87
2022/09/26 08:03:43;;;;;;;10.73;5.72;;;10.80;99.90;;;;;;5054242;28;20176;-86
2022/09/26 08:06:11;;;;;;;7.70;5.05;;;10.80;99.90;;;;;;5054179;28;20184;-85
2022/09/26 08:08:37;;;;;;;6.55;5.93;;;11.70;99.90;;;;;;5069136;28;20186;-87
2022/09/26 08:11:15;;;;;;;10.85;7.00;;;10.90;99.90;;;;;;5057661;28;20183;-87
2022/09/26 08:13:42;;;;;;;4.85;4.25;;;11.00;99.90;;;;;;5054728;28;20176;-87
2022/09/26 08:16:08;;;;;;;5.82;4.43;;;11.10;99.90;;;;;;5055408;28;20234;-87
2022/09/26 08:18:33;;;;;;;6.05;5.43;;;11.90;99.90;;;;;;5055354;28;20164;-86
2022/09/26 08:21:04;;;;;;;9.02;6.38;;;11.00;99.90;;;;;;5037613;28;20214;-86
2022/09/26 08:23:30;;;;;;;7.72;6.25;;;11.10;99.90;;;;;;5055336;28;20250;-86
2022/09/26 08:25:56;;;;;;;5.30;4.78;;;11.10;99.90;;;;;;5055265;28;20172;-86
2022/09/26 08:28:22;;;;;;;7.35;4.90;;;11.10;99.90;;;;;;5054799;28;20180;-86
2022/09/26 08:30:48;;;;;;;6.97;5.57;;;11.10;99.90;;;;;;5037741;28;20679;-87
2022/09/26 08:33:14;;;;;;;5.60;4.47;;;11.00;99.90;;;;;;5057382;28;20211;-87
2022/09/26 08:35:40;;;;;;;5.45;4.63;;;11.00;99.90;;;;;;5055469;28;20211;-87
2022/09/26 08:38:07;;;;;;;6.13;4.57;;;11.00;99.90;;;;;;5055523;28;20254;-86
2022/09/26 08:41:15;;;;;;;7.88;4.68;;;11.10;99.90;;;;;;5055760;28;20607;-87
2022/09/26 08:43:54;;;;;;;7.05;5.07;;;11.10;99.90;;;;;;5025893;28;20192;-88
2022/09/26 08:46:48;;;;;;;6.68;4.63;;;11.10;99.90;;;;;;5058582;28;20202;-86
2022/09/26 08:49:38;;;;;;;7.90;5.43;;;11.60;99.90;;;;;;5028738;28;20188;-88
2022/09/26 08:52:21;;;;;;;5.65;4.80;;;11.30;99.90;;;;;;5074081;28;20141;-87
2022/09/26 08:54:50;;;;;;;6.38;5.07;;;11.90;99.90;;;;;;5062125;28;20271;-85
2022/09/26 08:57:29;;;;;;;6.38;4.82;;;11.40;99.90;;;;;;5078681;28;20160;-85
2022/09/26 08:59:55;;;;;;;5.45;4.43;;;11.50;99.90;;;;;;5079258;28;20247;-89
2022/09/26 09:02:36;;;;;;;4.88;3.97;;;11.30;99.90;;;;;;5040597;28;20220;-88
2022/09/26 09:05:08;;;;;;;5.55;4.82;;;11.50;99.90;;;;;;5060405;28;20176;-90
2022/09/26 09:07:34;;;;;;;4.93;4.20;;;11.60;99.90;;;;;;5077842;28;20164;-87
2022/09/26 09:10:09;;;;;;;6.75;5.18;;;11.60;99.90;;;;;;5061544;28;20195;-89
2022/09/26 09:12:46;;;;;;;6.03;4.22;;;11.70;99.90;;;;;;5062059;28;20175;-87
2022/09/26 09:15:43;;;;;;;6.25;3.95;;;11.80;99.90;;;;;;5056767;28;20195;-87
2022/09/26 09:18:27;;;;;;;6.05;4.05;;;11.80;99.90;;;;;;5035953;28;20227;-87
2022/09/26 09:21:06;;;;;;;4.53;3.95;;;11.80;99.90;;;;;;5053187;28;20156;-86
2022/09/26 09:24:16;;;;;;;7.15;4.75;;;11.70;99.90;;;;;;5054454;28;20175;-87
2022/09/26 09:27:02;;;;;;;5.03;3.95;;;11.90;99.90;;;;;;4976326;28;20682;-86
2022/09/26 09:29:58;;;;;;;4.95;3.95;;;12.00;99.90;;;;;;5031801;28;20184;-86
2022/09/26 09:32:30;;;;;;;8.02;3.95;;;12.00;99.90;;;;;;5036198;28;20175;-86
2022/09/26 09:34:56;;;;;;;6.85;4.97;;;12.30;99.90;;;;;;5053929;28;20203;-87
2022/09/26 09:37:36;;;;;;;6.65;4.72;;;12.30;99.90;;;;;;5036143;28;20180;-86
2022/09/26 09:40:06;;;;;;;5.95;4.22;;;12.30;99.90;;;;;;5035881;28;20520;-87
2022/09/26 09:42:56;;;;;;;8.85;4.45;;;12.30;99.90;;;;;;5053935;28;20167;-86
2022/09/26 09:45:24;;;;;;;6.63;4.22;;;12.40;99.90;;;;;;5036225;28;20524;-86
2022/09/26 09:47:50;;;;;;;3.10;2.72;;;12.50;99.90;;;;;;5053552;28;20203;-87
2022/09/26 09:50:30;;;;;;;7.47;4.28;;;12.50;99.90;;;;;;5055378;28;20211;-86
2022/09/26 09:53:17;;;;;;;6.32;4.03;;;12.50;99.90;;;;;;5057435;28;20179;-87
2022/09/26 09:56:02;;;;;;;5.25;4.28;;;12.50;99.90;;;;;;5056994;28;20249;-84
2022/09/26 09:58:31;;;;;;;4.72;3.97;;;12.50;99.90;;;;;;5054692;28;20245;-86
2022/09/26 10:01:11;;;;;;;5.93;4.47;;;12.60;99.90;;;;;;5053809;28;20180;-85
2022/09/26 10:04:12;;;;;;;7.75;5.00;;;12.60;99.90;;;;;;5053613;28;20160;-85
2022/09/26 10:06:40;;;;;;;7.13;3.80;;;12.60;99.90;;;;;;5029108;28;20194;-85
2022/09/26 10:09:21;;;;;;;7.15;4.82;;;12.50;99.90;;;;;;5053515;28;20187;-86
2022/09/26 10:11:47;;;;;;;5.57;4.65;;;12.50;99.90;;;;;;5053345;28;20183;-86
2022/09/26 10:14:27;;;;;;;6.53;4.68;;;12.50;99.90;;;;;;5035364;28;20212;-85
2022/09/26 10:17:08;;;;;;;6.05;4.82;;;12.60;99.90;;;;;;5053172;28;20310;-87
2022/09/26 10:19:36;;;;;;;4.43;3.92;;;12.70;99.90;;;;;;5053829;28;20179;-85
2022/09/26 10:22:04;;;;;;;6.32;4.55;;;12.70;99.90;;;;;;5035496;28;20270;-84
2022/09/26 10:24:39;;;;;;;6.97;5.70;;;12.70;99.90;;;;;;5053635;28;20652;-86
2022/09/26 10:27:30;;;;;;;7.53;5.03;;;12.70;99.90;;;;;;5035742;28;20182;-86
2022/09/26 10:29:58;;;;;;;5.82;4.22;;;12.70;99.90;;;;;;5053319;28;20164;-87
2022/09/26 10:32:24;;;;;;;7.25;4.63;;;12.70;99.90;;;;;;5053662;28;20184;-87
2022/09/26 10:35:06;;;;;;;9.70;6.45;;;12.70;99.90;;;;;;5025673;28;20207;-86
2022/09/26 10:37:35;;;;;;;6.35;4.80;;;12.70;99.90;;;;;;5054140;28;20620;-87
2022/09/26 10:42:46;;;;;;;7.28;4.72;;;12.80;99.90;;;;;;5053901;28;20190;-88
2022/09/26 10:45:19;;;;;;;7.13;5.85;;;12.80;99.90;;;;;;5053391;28;20279;-87
2022/09/26 10:47:50;;;;;;;7.85;4.65;;;12.90;99.90;;;;;;5052476;28;20164;-87
2022/09/26 10:50:26;;;;;;;8.05;4.30;;;12.90;99.90;;;;;;5052934;28;20167;-86
2022/09/26 10:53:00;;;;;;;6.63;4.60;;;13.00;99.90;;;;;;5052919;28;20164;-88
2022/09/26 10:55:50;;;;;;;8.77;5.70;;;13.00;99.90;;;;;;5052973;28;20207;-88
2022/09/26 10:58:22;;;;;;;6.63;5.43;;;12.90;99.90;;;;;;5053182;28;20168;-89
2022/09/26 11:00:50;;;;;;;8.57;4.75;;;13.00;99.90;;;;;;5035413;28;20182;-89
2022/09/26 11:03:20;;;;;;;9.75;5.90;;;13.00;99.90;;;;;;5053694;28;20172;-89
2022/09/26 11:05:59;;;;;;;7.03;4.72;;;13.10;99.90;;;;;;5034965;28;20180;-89
2022/09/26 11:08:30;;;;;;;6.38;4.78;;;13.10;99.90;;;;;;5040531;28;20666;-90
2022/09/26 11:10:59;;;;;;;6.88;5.40;;;13.10;99.90;;;;;;5044103;28;20179;-89
2022/09/26 11:13:28;;;;;;;7.05;4.55;;;13.10;99.90;;;;;;5023634;28;20172;-90
2022/09/26 11:16:09;;;;;;;6.75;5.18;;;13.10;99.90;;;;;;5026152;28;20210;-87
2022/09/26 11:18:59;;;;;;;7.00;5.55;;;13.10;99.90;;;;;;5048180;28;20161;-90
2022/09/26 11:21:37;;;;;;;10.90;6.20;;;13.10;99.90;;;;;;5053336;28;20245;-89
2022/09/26 11:24:36;;;;;;;7.38;4.75;;;13.10;99.90;;;;;;5051872;28;20172;-89
2022/09/26 11:27:22;;;;;;;8.45;4.70;;;13.20;99.90;;;;;;5035408;28;20180;-89
2022/09/26 11:29:54;;;;;;;7.53;5.32;;;13.20;99.90;;;;;;5057070;28;20180;-88
2022/09/26 11:32:41;;;;;;;6.45;4.72;;;13.20;99.90;;;;;;5053941;28;20179;-89
2022/09/26 11:35:28;;;;;;;7.35;5.40;;;13.20;99.90;;;;;;5052089;28;20195;-89
2022/09/26 11:38:09;;;;;;;5.68;4.18;;;13.30;99.90;;;;;;5052993;28;20176;-89
2022/09/26 11:40:50;;;;;;;9.48;4.55;;;13.30;99.90;;;;;;5035833;28;20175;-88
2022/09/26 11:43:25;;;;;;;6.22;4.05;;;13.40;99.90;;;;;;5052881;28;20172;-89
2022/09/26 11:46:13;;;;;;;9.32;5.45;;;13.40;99.90;;;;;;5057756;28;20186;-89
2022/09/26 11:49:09;;;;;;;6.18;3.67;;;13.50;99.90;;;;;;5058819;28;20186;-89
2022/09/26 11:51:51;;;;;;;8.10;5.55;;;13.50;99.90;;;;;;5039345;28;20180;-89
2022/09/26 11:54:37;;;;;;;5.85;4.60;;;13.50;99.90;;;;;;5057787;28;20188;-89
2022/09/26 11:57:32;;;;;;;8.93;5.13;;;13.60;99.90;;;;;;5037550;28;20188;-89
2022/09/26 12:00:26;;;;;;;5.55;3.92;;;13.60;99.90;;;;;;5052352;28;20246;-90
2022/09/26 12:02:59;;;;;;;7.72;5.63;;;13.70;99.90;;;;;;5039802;28;20175;-89
2022/09/26 12:05:51;;;;;;;7.55;4.78;;;13.70;99.90;;;;;;5044582;28;20234;-89
2022/09/26 12:08:20;;;;;;;8.55;5.07;;;13.80;99.90;;;;;;5054397;28;20169;-89
2022/09/26 12:10:48;;;;;;;5.10;3.55;;;13.90;99.90;;;;;;5056330;28;20176;-89
2022/09/26 12:13:17;;;;;;;9.77;4.93;;;13.90;99.90;;;;;;5054395;28;20648;-88
2022/09/26 12:15:54;;;;;;;9.65;5.03;;;14.00;99.90;;;;;;5054342;28;20306;-88
2022/09/26 12:18:23;;;;;;;4.35;3.55;;;14.10;99.90;;;;;;5053596;28;20168;-89
2022/09/26 12:21:07;;;;;;;8.60;3.92;;;14.10;99.90;;;;;;5056289;28;20180;-89
2022/09/26 12:23:51;;;;;;;7.72;4.47;;;14.20;99.90;;;;;;5059040;28;20206;-89
2022/09/26 12:26:21;;;;;;;7.45;4.38;;;14.20;99.90;;;;;;5057974;28;20164;-89
2022/09/26 12:28:56;;;;;;;7.20;4.32;;;14.40;99.90;;;;;;5055444;28;20195;-89
2022/09/26 12:31:43;;;;;;;6.40;5.20;;;14.50;99.90;;;;;;5049852;28;20637;-88
2022/09/26 12:34:30;;;;;;;7.50;3.67;;;14.60;99.90;;;;;;5052109;28;20750;-88
2022/09/26 12:37:32;;;;;;;5.78;3.83;;;14.70;99.90;;;;;;5053134;28;20170;-88
2022/09/26 12:40:16;;;;;;;6.50;4.15;;;14.70;99.90;;;;;;5054028;28;20202;-88
2022/09/26 12:42:46;;;;;;;7.85;4.80;;;14.70;99.90;;;;;;5053414;28;20160;-89
2022/09/26 12:45:25;;;;;;;8.00;4.90;;;14.70;99.90;;;;;;5052865;28;20245;-89
2022/09/26 12:48:13;;;;;;;7.93;4.70;;;14.70;99.90;;;;;;5056524;28;20620;-89
2022/09/26 12:50:45;;;;;;;8.15;4.78;;;14.80;99.90;;;;;;5038843;28;20580;-89
2022/09/26 12:53:32;;;;;;;6.45;4.55;;;14.80;99.90;;;;;;5055640;28;20171;-89
2022/09/26 12:56:07;;;;;;;6.80;3.78;;;14.90;99.90;;;;;;5037814;28;20206;-87
2022/09/26 12:58:57;;;;;;;6.25;4.20;;;15.00;99.90;;;;;;5055133;28;20163;-88
2022/09/26 13:01:56;;;;;;;5.47;3.95;;;15.10;99.90;;;;;;5037840;28;20195;-88
2022/09/26 13:04:51;;;;;;;3.67;3.08;;;15.20;99.90;;;;;;5038304;28;20179;-88
2022/09/26 13:07:39;;;;;;;7.25;4.43;;;15.40;99.90;;;;;;5009457;28;20196;-88
2022/09/26 13:10:24;;;;;;;7.10;4.13;;;15.50;99.90;;;;;;5049632;28;20656;-88
2022/09/26 13:13:01;;;;;;;7.75;4.38;;;15.70;99.90;;;;;;5055645;28;20160;-89
2022/09/26 13:16:06;;;;;;;5.88;3.70;;;15.90;99.90;;;;;;5057192;28;20597;-88
2022/09/26 13:18:43;;;;;;;7.05;4.07;;;16.00;99.90;;;;;;5056294;28;20207;-88
2022/09/26 13:21:23;;;;;;;5.45;3.53;;;16.10;99.90;;;;;;5056985;28;20617;-90
2022/09/26 13:23:58;;;;;;;8.05;3.90;;;16.00;99.90;;;;;;5041346;28;20528;-90
2022/09/26 13:26:41;;;;;;;5.03;3.50;;;16.10;99.90;;;;;;5055683;28;20620;-88
2022/09/26 13:29:12;;;;;;;9.63;3.58;;;16.10;99.90;;;;;;5037769;28;20566;-88
2022/09/26 13:31:45;;;;;;;7.63;4.22;;;16.40;99.90;;;;;;5040362;28;20377;-88
2022/09/26 13:34:21;;;;;;;5.97;3.75;;;16.80;99.90;;;;;;5056688;28;20195;-89
2022/09/26 13:36:48;;;;;;;5.13;3.63;;;17.40;99.90;;;;;;5056763;28;20171;-88